Time;durP1;ratioP1;P1;durP2;ratioP2;P2;SDS_P1;SDS_P2;PMS_P1;PMS_P2;Temp;Humidity;BMP_temperature;BMP_pressure;BME280_temperature;BME280_humidity;BME280_pressure;Samples;Min_cycle;Max_cycle;Signal;HPM_P1;HPM_P2
2022/08/06 00:00:25;;;;;;;1.90;0.50;;;;;;;;;;5001846;28;20041;-81
2022/08/06 00:02:51;;;;;;;1.05;0.30;;;;;;;;;;5000937;28;20104;-83
2022/08/06 00:05:17;;;;;;;1.77;0.40;;;;;;;;;;5000832;28;20029;-82
2022/08/06 00:07:43;;;;;;;1.75;0.40;;;;;;;;;;5000828;28;20723;-81
2022/08/06 00:10:08;;;;;;;2.00;0.77;;;;;;;;;;5000607;28;20522;-81
2022/08/06 00:12:34;;;;;;;1.35;0.30;;;;;;;;;;5017434;28;20442;-81
2022/08/06 00:15:01;;;;;;;3.05;0.55;;;;;;;;;;5000922;28;20120;-81
2022/08/06 00:17:26;;;;;;;2.05;0.20;;;;;;;;;;4984571;28;20033;-82
2022/08/06 00:19:52;;;;;;;1.45;0.40;;;;;;;;;;5021621;28;20383;-81
2022/08/06 00:22:17;;;;;;;1.38;0.30;;;;;;;;;;5020278;28;20048;-81
2022/08/06 00:24:43;;;;;;;2.03;0.43;;;;;;;;;;5004079;28;20410;-81
2022/08/06 00:27:08;;;;;;;1.67;0.40;;;;;;;;;;5016679;28;20049;-81
2022/08/06 00:29:33;;;;;;;1.40;0.30;;;;;;;;;;5016699;28;20463;-81
2022/08/06 00:31:59;;;;;;;1.35;0.30;;;;;;;;;;4984308;28;20380;-81
2022/08/06 00:34:24;;;;;;;1.70;0.30;;;;;;;;;;5000488;28;20396;-82
2022/08/06 00:36:50;;;;;;;2.45;0.32;;;;;;;;;;4983334;28;20038;-82
2022/08/06 00:39:15;;;;;;;2.78;0.40;;;;;;;;;;5000440;28;20057;-81
2022/08/06 00:41:41;;;;;;;1.45;0.40;;;;;;;;;;5000665;28;20147;-82
2022/08/06 00:44:06;;;;;;;1.17;0.40;;;;;;;;;;4984138;28;20033;-81
2022/08/06 00:46:32;;;;;;;1.17;0.30;;;;;;;;;;5000413;28;20029;-82
2022/08/06 00:48:57;;;;;;;2.35;0.40;;;;;;;;;;4984039;28;20416;-82
2022/08/06 00:51:23;;;;;;;1.83;0.30;;;;;;;;;;4982986;28;20032;-81
2022/08/06 00:53:52;;;;;;;3.50;0.82;;;;;;;;;;4984175;28;20037;-82
2022/08/06 00:56:17;;;;;;;2.08;0.40;;;;;;;;;;4995442;28;20514;-82
2022/08/06 00:58:42;;;;;;;1.30;0.30;;;;;;;;;;5032794;28;20046;-82
2022/08/06 01:01:08;;;;;;;1.20;0.45;;;;;;;;;;5032303;28;20033;-82
2022/08/06 01:03:34;;;;;;;3.90;0.73;;;;;;;;;;4999270;28;20037;-82
2022/08/06 01:05:59;;;;;;;1.95;0.40;;;;;;;;;;5016075;28;20064;-82
2022/08/06 01:08:25;;;;;;;1.58;0.38;;;;;;;;;;5016242;28;20042;-81
2022/08/06 01:10:50;;;;;;;1.58;0.30;;;;;;;;;;5015950;28;20026;-82
2022/08/06 01:13:16;;;;;;;2.63;0.38;;;;;;;;;;4999692;28;20030;-81
2022/08/06 01:15:42;;;;;;;1.42;0.63;;;;;;;;;;4999836;28;20037;-82
2022/08/06 01:18:13;;;;;;;2.42;0.30;;;;;;;;;;4999742;28;20033;-82
2022/08/06 01:20:41;;;;;;;1.85;0.43;;;;;;;;;;5006903;28;20116;-82
2022/08/06 01:23:21;;;;;;;1.38;0.50;;;;;;;;;;5015712;28;20500;-82
2022/08/06 01:26:09;;;;;;;1.90;0.28;;;;;;;;;;5004199;28;20109;-82
2022/08/06 01:28:46;;;;;;;3.53;0.60;;;;;;;;;;4999164;28;20041;-81
2022/08/06 01:31:17;;;;;;;4.78;0.63;;;;;;;;;;4999420;28;20069;-80
2022/08/06 01:33:45;;;;;;;1.10;0.25;;;;;;;;;;4999242;28;20033;-81
2022/08/06 01:36:13;;;;;;;1.25;0.30;;;;;;;;;;4999394;28;20175;-82
2022/08/06 01:38:44;;;;;;;2.15;0.47;;;;;;;;;;4999777;28;20033;-81
2022/08/06 01:41:11;;;;;;;2.07;0.50;;;;;;;;;;4999511;28;20029;-81
2022/08/06 01:43:37;;;;;;;1.80;0.47;;;;;;;;;;4999448;28;20472;-81
2022/08/06 01:46:02;;;;;;;1.02;0.50;;;;;;;;;;4999031;28;20120;-80
2022/08/06 01:48:27;;;;;;;1.52;0.45;;;;;;;;;;4999114;28;20415;-81
2022/08/06 01:50:57;;;;;;;1.42;0.40;;;;;;;;;;4982262;28;20064;-80
2022/08/06 01:53:30;;;;;;;2.30;0.60;;;;;;;;;;4999253;28;20128;-81
2022/08/06 01:55:57;;;;;;;1.90;0.40;;;;;;;;;;5015869;28;20033;-80
2022/08/06 01:58:26;;;;;;;1.80;0.38;;;;;;;;;;4998608;28;20044;-80
2022/08/06 02:00:52;;;;;;;2.70;0.63;;;;;;;;;;4999173;28;20076;-81
2022/08/06 02:03:30;;;;;;;1.67;0.40;;;;;;;;;;5014415;28;20431;-80
2022/08/06 02:05:56;;;;;;;2.60;0.88;;;;;;;;;;4998905;28;20047;-80
2022/08/06 02:08:22;;;;;;;2.50;0.43;;;;;;;;;;4982670;28;20154;-80
2022/08/06 02:10:48;;;;;;;4.20;1.00;;;;;;;;;;4998705;28;20033;-80
2022/08/06 02:13:14;;;;;;;1.98;0.32;;;;;;;;;;4999131;28;20044;-81
2022/08/06 02:15:39;;;;;;;1.35;0.40;;;;;;;;;;4982546;28;20029;-81
2022/08/06 02:18:05;;;;;;;0.93;0.50;;;;;;;;;;5015009;28;20108;-82
2022/08/06 02:20:33;;;;;;;3.60;0.30;;;;;;;;;;5025088;28;20155;-82
2022/08/06 02:22:59;;;;;;;2.33;0.60;;;;;;;;;;5018542;28;20044;-82
2022/08/06 02:25:24;;;;;;;1.35;0.40;;;;;;;;;;5001859;28;20036;-82
2022/08/06 02:27:50;;;;;;;2.22;0.40;;;;;;;;;;5017869;28;20127;-82
2022/08/06 02:30:16;;;;;;;1.77;0.40;;;;;;;;;;5018178;28;20037;-82
2022/08/06 02:32:41;;;;;;;2.50;0.38;;;;;;;;;;5001824;28;20513;-82
2022/08/06 02:35:09;;;;;;;3.03;0.50;;;;;;;;;;5018051;28;20033;-81
2022/08/06 02:37:49;;;;;;;2.38;0.65;;;;;;;;;;5017940;28;20112;-82
2022/08/06 02:40:22;;;;;;;2.45;1.33;;;;;;;;;;5018421;28;20047;-82
2022/08/06 02:43:24;;;;;;;2.25;0.63;;;;;;;;;;5001964;28;20120;-82
2022/08/06 02:46:03;;;;;;;;;;;;;;;;;;5016953;28;20434;-82
2022/08/06 02:48:49;;;;;;;2.58;0.63;;;;;;;;;;5014848;28;20398;-81
2022/08/06 02:51:21;;;;;;;2.05;0.60;;;;;;;;;;5016012;28;20392;-82
2022/08/06 02:53:56;;;;;;;2.38;0.55;;;;;;;;;;5001319;28;20128;-83
2022/08/06 02:56:21;;;;;;;2.50;0.68;;;;;;;;;;5018167;28;20114;-82
2022/08/06 02:58:47;;;;;;;0.93;0.30;;;;;;;;;;5016982;28;20041;-81
2022/08/06 03:01:20;;;;;;;1.38;0.38;;;;;;;;;;5000966;28;20446;-82
2022/08/06 03:03:46;;;;;;;1.40;0.40;;;;;;;;;;5013913;28;20045;-82
2022/08/06 03:06:12;;;;;;;2.00;0.55;;;;;;;;;;4997057;28;20466;-81
2022/08/06 03:08:37;;;;;;;1.75;0.55;;;;;;;;;;5014334;28;20069;-81
2022/08/06 03:11:03;;;;;;;1.70;0.50;;;;;;;;;;5013982;28;20041;-80
2022/08/06 03:13:29;;;;;;;1.15;0.40;;;;;;;;;;4997899;28;20503;-81
2022/08/06 03:15:54;;;;;;;1.35;0.50;;;;;;;;;;5029491;28;20049;-82
2022/08/06 03:18:20;;;;;;;1.80;0.60;;;;;;;;;;4997621;28;20033;-81
2022/08/06 03:20:45;;;;;;;2.22;0.45;;;;;;;;;;5026000;28;20036;-81
2022/08/06 03:23:11;;;;;;;2.92;0.40;;;;;;;;;;5001197;28;20044;-80
2022/08/06 03:25:37;;;;;;;2.53;0.70;;;;;;;;;;4997522;28;20037;-81
2022/08/06 03:28:03;;;;;;;4.80;1.17;;;;;;;;;;4981095;28;20487;-80
2022/08/06 03:30:29;;;;;;;1.75;0.52;;;;;;;;;;4997632;28;20059;-81
2022/08/06 03:32:54;;;;;;;2.00;0.30;;;;;;;;;;4981328;28;20567;-80
2022/08/06 03:35:20;;;;;;;1.65;0.40;;;;;;;;;;5013643;28;20041;-80
2022/08/06 03:37:46;;;;;;;3.35;0.63;;;;;;;;;;4981556;28;20034;-81
2022/08/06 03:40:12;;;;;;;1.02;0.28;;;;;;;;;;4981542;28;20480;-81
2022/08/06 03:42:37;;;;;;;1.75;0.50;;;;;;;;;;4981345;28;20038;-80
2022/08/06 03:45:03;;;;;;;1.27;0.40;;;;;;;;;;5013754;28;20133;-81
2022/08/06 03:47:32;;;;;;;3.10;0.43;;;;;;;;;;4981044;28;20041;-81
2022/08/06 03:50:18;;;;;;;2.20;0.52;;;;;;;;;;4998461;28;20044;-81
2022/08/06 03:52:46;;;;;;;2.28;0.40;;;;;;;;;;4997663;28;20037;-81
2022/08/06 03:55:17;;;;;;;1.67;0.50;;;;;;;;;;4997550;28;20037;-81
2022/08/06 03:57:45;;;;;;;1.90;0.60;;;;;;;;;;4997085;28;20095;-81
2022/08/06 04:00:11;;;;;;;2.38;0.50;;;;;;;;;;4997267;28;20030;-80
2022/08/06 04:02:38;;;;;;;2.28;0.57;;;;;;;;;;5004939;28;20029;-80
2022/08/06 04:05:04;;;;;;;1.67;0.55;;;;;;;;;;4997353;28;20040;-80
2022/08/06 04:07:29;;;;;;;1.35;0.40;;;;;;;;;;4997474;28;20033;-80
2022/08/06 04:09:55;;;;;;;2.20;0.60;;;;;;;;;;5013363;28;20124;-82
2022/08/06 04:12:20;;;;;;;1.92;0.60;;;;;;;;;;4997374;28;20041;-80
2022/08/06 04:14:46;;;;;;;2.75;0.55;;;;;;;;;;5029788;28;20037;-80
2022/08/06 04:17:11;;;;;;;3.85;0.80;;;;;;;;;;5013466;28;20072;-80
2022/08/06 04:19:39;;;;;;;5.13;0.80;;;;;;;;;;5016372;28;20495;-80
2022/08/06 04:22:04;;;;;;;4.38;0.80;;;;;;;;;;5016977;28;20049;-81
2022/08/06 04:24:30;;;;;;;0.90;0.32;;;;;;;;;;5016605;28;20102;-82
2022/08/06 04:26:55;;;;;;;1.27;0.30;;;;;;;;;;5013615;28;20045;-81
2022/08/06 04:29:21;;;;;;;1.42;0.30;;;;;;;;;;4984051;28;20045;-82
2022/08/06 04:31:48;;;;;;;1.75;0.50;;;;;;;;;;5016756;28;20044;-81
2022/08/06 04:34:19;;;;;;;1.25;0.30;;;;;;;;;;4984607;28;20041;-81
2022/08/06 04:36:44;;;;;;;1.40;0.50;;;;;;;;;;5017240;28;20033;-81
2022/08/06 04:39:09;;;;;;;2.05;0.43;;;;;;;;;;4984437;28;20029;-81
2022/08/06 04:41:35;;;;;;;2.05;0.70;;;;;;;;;;5000367;28;20034;-80
2022/08/06 04:44:00;;;;;;;3.45;0.52;;;;;;;;;;5016347;28;20111;-80
2022/08/06 04:46:26;;;;;;;1.95;0.50;;;;;;;;;;5000427;28;20373;-80
2022/08/06 04:48:51;;;;;;;2.65;0.70;;;;;;;;;;5016773;28;20415;-80
2022/08/06 04:51:17;;;;;;;2.33;0.50;;;;;;;;;;5011795;28;20404;-80
2022/08/06 04:53:42;;;;;;;1.30;0.22;;;;;;;;;;5000068;28;20034;-80
2022/08/06 04:56:08;;;;;;;2.05;0.47;;;;;;;;;;5000485;28;20037;-80
2022/08/06 04:58:34;;;;;;;1.98;0.50;;;;;;;;;;4999872;28;20416;-80
2022/08/06 05:00:59;;;;;;;1.70;0.38;;;;;;;;;;4983975;28;20040;-80
2022/08/06 05:03:25;;;;;;;5.00;0.50;;;;;;;;;;5045236;28;20034;-80
2022/08/06 05:06:09;;;;;;;1.67;0.50;;;;;;;;;;5016081;28;20034;-80
2022/08/06 05:08:36;;;;;;;2.90;0.85;;;;;;;;;;5032837;28;20041;-80
2022/08/06 05:11:24;;;;;;;2.08;0.75;;;;;;;;;;5016390;28;20034;-80
2022/08/06 05:13:56;;;;;;;1.65;0.45;;;;;;;;;;4999581;28;20037;-81
2022/08/06 05:16:22;;;;;;;3.45;1.02;;;;;;;;;;5016755;28;20034;-81
2022/08/06 05:18:53;;;;;;;2.17;0.38;;;;;;;;;;4999594;28;20049;-81
2022/08/06 05:21:21;;;;;;;3.60;0.70;;;;;;;;;;4999622;28;20377;-82
2022/08/06 05:23:51;;;;;;;3.53;0.40;;;;;;;;;;5016233;28;20044;-81
2022/08/06 05:26:16;;;;;;;3.00;0.90;;;;;;;;;;5007657;28;20452;-81
2022/08/06 05:28:42;;;;;;;1.83;0.38;;;;;;;;;;5031994;28;20060;-81
2022/08/06 05:31:07;;;;;;;2.58;0.40;;;;;;;;;;5015580;28;20040;-80
2022/08/06 05:33:38;;;;;;;1.52;0.60;;;;;;;;;;5015629;28;20115;-81
2022/08/06 05:36:08;;;;;;;1.65;0.73;;;;;;;;;;5032244;28;20033;-80
2022/08/06 05:38:37;;;;;;;1.15;0.22;;;;;;;;;;5015755;28;20068;-80
2022/08/06 05:41:07;;;;;;;1.35;0.50;;;;;;;;;;5015273;28;20056;-81
2022/08/06 05:43:32;;;;;;;2.58;0.55;;;;;;;;;;5032547;28;20508;-81
2022/08/06 05:46:09;;;;;;;4.75;0.60;;;;;;;;;;5015574;28;20036;-80
2022/08/06 05:48:38;;;;;;;2.92;0.90;;;;;;;;;;5000363;28;20045;-81
2022/08/06 05:51:31;;;;;;;3.03;0.52;;;;;;;;;;5008936;28;20033;-80
2022/08/06 05:54:23;;;;;;;2.28;0.68;;;;;;;;;;5026777;28;20096;-81
2022/08/06 05:56:49;;;;;;;1.65;0.63;;;;;;;;;;5017886;28;20641;-80
2022/08/06 05:59:26;;;;;;;4.10;0.93;;;;;;;;;;5031650;28;20053;-80
2022/08/06 06:01:52;;;;;;;1.67;0.80;;;;;;;;;;5003438;28;20452;-81
2022/08/06 06:04:17;;;;;;;3.72;1.27;;;;;;;;;;5019181;28;20542;-81
2022/08/06 06:06:43;;;;;;;4.00;1.00;;;;;;;;;;5018580;28;20052;-81
2022/08/06 06:09:10;;;;;;;3.25;1.10;;;;;;;;;;5019292;28;20048;-81
2022/08/06 06:11:35;;;;;;;6.70;1.83;;;;;;;;;;5001723;28;20407;-81
2022/08/06 06:14:02;;;;;;;6.57;1.55;;;;;;;;;;5034858;28;20044;-81
2022/08/06 06:16:31;;;;;;;4.03;1.23;;;;;;;;;;5018678;28;20139;-81
2022/08/06 06:19:02;;;;;;;3.80;1.25;;;;;;;;;;5018532;28;20025;-80
2022/08/06 06:21:50;;;;;;;3.47;1.17;;;;;;;;;;5050813;28;20522;-80
2022/08/06 06:24:21;;;;;;;3.88;1.40;;;;;;;;;;5034449;28;20036;-80
2022/08/06 06:27:00;;;;;;;3.80;0.97;;;;;;;;;;5030333;28;20436;-80
2022/08/06 06:29:47;;;;;;;5.75;1.27;;;;;;;;;;5016216;28;20502;-81
2022/08/06 06:32:19;;;;;;;4.15;1.17;;;;;;;;;;5014819;28;20037;-81
2022/08/06 06:34:54;;;;;;;3.17;1.25;;;;;;;;;;4998416;28;20398;-81
2022/08/06 06:37:39;;;;;;;2.58;1.10;;;;;;;;;;5014741;28;20069;-82
2022/08/06 06:40:22;;;;;;;2.15;0.82;;;;;;;;;;5014336;28;20044;-81
2022/08/06 06:43:40;;;;;;;3.40;0.90;;;;;;;;;;4998998;28;20041;-81
2022/08/06 06:46:11;;;;;;;4.60;1.45;;;;;;;;;;5022559;28;20048;-81
2022/08/06 06:48:45;;;;;;;10.02;1.95;;;;;;;;;;5014193;28;20463;-81
2022/08/06 06:51:14;;;;;;;3.95;1.15;;;;;;;;;;5025003;28;20037;-81
2022/08/06 06:53:41;;;;;;;4.47;1.02;;;;;;;;;;4997953;28;20408;-81
2022/08/06 06:56:07;;;;;;;2.83;0.90;;;;;;;;;;4997935;28;20048;-81
2022/08/06 06:58:36;;;;;;;3.95;0.85;;;;;;;;;;4997744;28;20067;-81
2022/08/06 07:01:04;;;;;;;3.88;0.70;;;;;;;;;;5014395;28;20073;-80
2022/08/06 07:03:30;;;;;;;4.68;1.35;;;;;;;;;;5012709;28;20041;-80
2022/08/06 07:05:57;;;;;;;4.72;0.90;;;;;;;;;;5014149;28;20041;-81
2022/08/06 07:08:23;;;;;;;2.08;0.77;;;;;;;;;;5013920;28;20087;-81
2022/08/06 07:10:49;;;;;;;4.78;0.93;;;;;;;;;;5030242;28;20045;-80
2022/08/06 07:13:14;;;;;;;7.25;1.23;;;;;;;;;;5013902;28;20404;-81
2022/08/06 07:15:40;;;;;;;2.85;0.93;;;;;;;;;;5013810;28;20045;-80
2022/08/06 07:18:06;;;;;;;3.25;0.80;;;;;;;;;;5030465;28;20033;-80
2022/08/06 07:20:31;;;;;;;9.93;0.93;;;;;;;;;;5013258;28;20033;-81
2022/08/06 07:23:02;;;;;;;5.35;1.48;;;;;;;;;;5013695;28;20523;-81
2022/08/06 07:25:27;;;;;;;3.63;0.90;;;;;;;;;;4998575;28;20037;-80
2022/08/06 07:27:53;;;;;;;5.25;1.45;;;;;;;;;;5013714;28;20045;-80
2022/08/06 07:30:19;;;;;;;5.43;0.90;;;;;;;;;;4997322;28;20064;-81
2022/08/06 07:32:45;;;;;;;12.05;1.55;;;;;;;;;;5014124;28;20041;-81
2022/08/06 07:35:11;;;;;;;3.72;1.23;;;;;;;;;;5013724;28;20045;-80
2022/08/06 07:37:37;;;;;;;4.70;0.93;;;;;;;;;;5013632;28;20045;-81
2022/08/06 07:40:05;;;;;;;5.20;1.17;;;;;;;;;;5013706;28;20038;-81
2022/08/06 07:42:30;;;;;;;5.93;1.35;;;;;;;;;;4997780;28;20037;-80
2022/08/06 07:44:57;;;;;;;4.80;0.95;;;;;;;;;;5044515;28;20122;-80
2022/08/06 07:47:33;;;;;;;4.55;1.30;;;;;;;;;;5033502;28;20545;-81
2022/08/06 07:49:58;;;;;;;2.53;0.50;;;;;;;;;;5011105;28;20033;-80
2022/08/06 07:52:25;;;;;;;3.38;0.70;;;;;;;;;;5008020;28;20472;-80
2022/08/06 07:54:50;;;;;;;2.15;0.40;;;;;;;;;;5012183;28;20491;-81
2022/08/06 07:57:16;;;;;;;3.55;0.88;;;;;;;;;;5016702;28;20083;-81
2022/08/06 07:59:42;;;;;;;2.88;0.95;;;;;;;;;;5017278;28;20120;-80
2022/08/06 08:02:07;;;;;;;1.42;0.40;;;;;;;;;;4998472;28;20144;-81
2022/08/06 08:07:17;;;;;;;6.88;1.58;;;;;;;;;;5005544;28;20029;-80
2022/08/06 08:09:43;;;;;;;5.70;1.45;;;;;;;;;;5017486;28;20029;-81
2022/08/06 08:12:15;;;;;;;11.75;4.90;;;;;;;;;;5017545;28;20037;-81
2022/08/06 08:14:43;;;;;;;6.55;2.60;;;;;;;;;;5001467;28;20087;-80
2022/08/06 08:17:08;;;;;;;4.07;1.50;;;;;;;;;;5017164;28;20112;-81
2022/08/06 08:19:34;;;;;;;4.60;1.10;;;;;;;;;;5019412;28;20458;-81
2022/08/06 08:22:02;;;;;;;3.80;1.00;;;;;;;;;;5005185;28;20466;-81
2022/08/06 08:24:28;;;;;;;3.83;0.80;;;;;;;;;;5020700;28;20036;-81
2022/08/06 08:26:54;;;;;;;14.27;1.50;;;;;;;;;;5012050;28;20532;-81
2022/08/06 08:29:21;;;;;;;6.75;1.00;;;;;;;;;;5036368;28;20040;-81
2022/08/06 08:31:47;;;;;;;12.65;3.03;;;;;;;;;;5019948;28;20025;-82
2022/08/06 08:34:13;;;;;;;4.95;0.90;;;;;;;;;;5020361;28;20501;-84
2022/08/06 08:36:39;;;;;;;7.60;1.70;;;;;;;;;;5019223;28;20124;-82
2022/08/06 08:39:11;;;;;;;4.10;0.35;;;;;;;;;;5027801;28;20041;-83
2022/08/06 08:41:40;;;;;;;5.90;0.93;;;;;;;;;;5000001;28;20488;-82
2022/08/06 08:44:06;;;;;;;2.03;0.40;;;;;;;;;;5000699;28;20087;-82
2022/08/06 08:46:34;;;;;;;2.58;0.63;;;;;;;;;;5000377;28;20426;-81
2022/08/06 08:49:02;;;;;;;3.78;1.17;;;;;;;;;;5016394;28;20025;-82
2022/08/06 08:51:27;;;;;;;2.95;0.82;;;;;;;;;;4999602;28;20133;-81
2022/08/06 08:53:53;;;;;;;5.47;0.82;;;;;;;;;;4999699;28;20412;-81
2022/08/06 08:56:19;;;;;;;2.30;0.68;;;;;;;;;;4999837;28;20526;-81
2022/08/06 08:58:45;;;;;;;6.68;1.42;;;;;;;;;;5016489;28;20095;-82
2022/08/06 09:01:11;;;;;;;3.22;0.40;;;;;;;;;;5015734;28;20484;-82
2022/08/06 09:03:37;;;;;;;4.82;0.57;;;;;;;;;;5015981;28;20084;-82
2022/08/06 09:06:03;;;;;;;2.50;0.50;;;;;;;;;;4997311;28;20033;-82
2022/08/06 09:08:30;;;;;;;4.72;0.63;;;;;;;;;;4998093;28;20052;-82
2022/08/06 09:10:56;;;;;;;1.33;0.40;;;;;;;;;;5013919;28;20042;-83
2022/08/06 09:13:26;;;;;;;2.83;0.45;;;;;;;;;;5013739;28;20037;-82
2022/08/06 09:15:52;;;;;;;2.63;0.30;;;;;;;;;;5000654;28;20071;-83
2022/08/06 09:18:22;;;;;;;3.47;0.60;;;;;;;;;;4994788;28;20080;-82
2022/08/06 09:20:48;;;;;;;1.60;0.35;;;;;;;;;;5029258;28;20033;-82
2022/08/06 09:23:15;;;;;;;1.67;0.50;;;;;;;;;;5003035;28;20041;-82
2022/08/06 09:25:43;;;;;;;2.78;1.02;;;;;;;;;;5016003;28;20050;-82
2022/08/06 09:28:10;;;;;;;3.45;0.70;;;;;;;;;;4983171;28;20435;-81
2022/08/06 09:30:37;;;;;;;2.63;0.40;;;;;;;;;;5015657;28;20042;-82
2022/08/06 09:33:02;;;;;;;1.25;0.35;;;;;;;;;;5016162;28;20041;-82
2022/08/06 09:35:29;;;;;;;4.10;0.73;;;;;;;;;;4999182;28;20381;-81
2022/08/06 09:38:02;;;;;;;1.52;0.40;;;;;;;;;;4999578;28;20041;-82
2022/08/06 09:40:28;;;;;;;2.08;0.40;;;;;;;;;;5015737;28;20061;-82
2022/08/06 09:42:53;;;;;;;5.50;0.85;;;;;;;;;;4999211;28;20041;-82
2022/08/06 09:45:19;;;;;;;2.30;0.90;;;;;;;;;;4998950;28;20128;-81
2022/08/06 09:47:45;;;;;;;3.78;0.70;;;;;;;;;;4982873;28;20025;-81
2022/08/06 09:50:11;;;;;;;1.77;0.32;;;;;;;;;;4998415;28;20032;-82
2022/08/06 09:52:36;;;;;;;2.45;0.45;;;;;;;;;;5031792;28;20045;-81
2022/08/06 09:55:02;;;;;;;2.70;0.70;;;;;;;;;;4999063;28;20033;-82
2022/08/06 09:57:41;;;;;;;2.42;0.30;;;;;;;;;;5015142;28;20111;-82
2022/08/06 10:00:08;;;;;;;1.88;0.65;;;;;;;;;;4998898;28;20494;-81
2022/08/06 10:02:34;;;;;;;1.65;0.55;;;;;;;;;;4998822;28;20416;-81
2022/08/06 10:05:09;;;;;;;3.15;0.45;;;;;;;;;;4998810;28;20026;-81
2022/08/06 10:07:35;;;;;;;2.33;0.40;;;;;;;;;;4983018;28;20049;-81
2022/08/06 10:10:00;;;;;;;2.13;0.30;;;;;;;;;;5014955;28;20503;-81
2022/08/06 10:12:26;;;;;;;2.83;0.35;;;;;;;;;;4998473;28;20044;-82
2022/08/06 10:14:55;;;;;;;3.22;0.30;;;;;;;;;;5009481;28;20510;-82
2022/08/06 10:17:23;;;;;;;4.95;0.47;;;;;;;;;;4998438;28;20056;-82
2022/08/06 10:20:10;;;;;;;2.97;0.65;;;;;;;;;;5002535;28;20111;-82
2022/08/06 10:22:36;;;;;;;1.70;0.40;;;;;;;;;;4983616;28;20399;-82
2022/08/06 10:25:03;;;;;;;1.10;0.22;;;;;;;;;;4998746;28;20125;-82
2022/08/06 10:27:34;;;;;;;1.95;0.30;;;;;;;;;;5002885;28;20040;-81
2022/08/06 10:30:02;;;;;;;1.95;0.22;;;;;;;;;;5001896;28;20067;-82
2022/08/06 10:32:53;;;;;;;2.50;0.40;;;;;;;;;;5033755;28;20059;-83
2022/08/06 10:35:21;;;;;;;2.33;0.30;;;;;;;;;;5017540;28;20075;-82
2022/08/06 10:37:59;;;;;;;2.42;0.60;;;;;;;;;;5034743;28;20037;-81
2022/08/06 10:40:24;;;;;;;1.48;0.30;;;;;;;;;;5033965;28;20036;-81
2022/08/06 10:42:50;;;;;;;1.35;0.32;;;;;;;;;;5001625;28;20051;-81
2022/08/06 10:45:16;;;;;;;3.63;0.68;;;;;;;;;;5031802;28;20029;-81
2022/08/06 10:47:45;;;;;;;1.17;0.30;;;;;;;;;;5004350;28;20049;-81
2022/08/06 10:50:11;;;;;;;1.13;0.32;;;;;;;;;;4990085;28;20492;-80
2022/08/06 10:52:37;;;;;;;10.25;6.05;;;;;;;;;;5023931;28;20119;-80
2022/08/06 10:55:06;;;;;;;12.43;7.18;;;;;;;;;;5025840;28;20518;-80
2022/08/06 10:57:35;;;;;;;6.85;3.03;;;;;;;;;;5028840;28;20112;-80
2022/08/06 11:00:01;;;;;;;5.93;2.55;;;;;;;;;;5013375;28;20045;-79
2022/08/06 11:02:53;;;;;;;2.78;1.50;;;;;;;;;;5026129;28;20102;-79
2022/08/06 11:05:21;;;;;;;4.22;1.67;;;;;;;;;;5035831;28;20411;-79
2022/08/06 11:08:08;;;;;;;4.25;0.80;;;;;;;;;;5003692;28;20050;-79
2022/08/06 11:10:42;;;;;;;3.22;0.52;;;;;;;;;;5011750;28;20466;-79
2022/08/06 11:13:35;;;;;;;3.67;0.57;;;;;;;;;;5046691;28;20047;-79
2022/08/06 11:16:00;;;;;;;;;;;;;;;;;;5017135;28;20059;-79
2022/08/06 11:18:26;;;;;;;4.07;1.10;;;;;;;;;;5029528;28;19916;-79
2022/08/06 11:20:54;;;;;;;1.92;0.43;;;;;;;;;;5026653;28;20040;-79
2022/08/06 11:23:23;;;;;;;1.58;0.30;;;;;;;;;;4999811;28;20033;-79
2022/08/06 11:25:50;;;;;;;1.65;0.30;;;;;;;;;;5037797;28;20041;-80
2022/08/06 11:28:40;;;;;;;1.15;0.32;;;;;;;;;;4998166;28;20037;-79
2022/08/06 11:31:06;;;;;;;5.72;1.75;;;;;;;;;;5030791;28;20042;-80
2022/08/06 11:33:37;;;;;;;5.20;1.98;;;;;;;;;;5007139;28;20112;-79
2022/08/06 11:36:04;;;;;;;1.67;0.40;;;;;;;;;;5037862;28;20095;-79
2022/08/06 11:38:48;;;;;;;1.65;0.50;;;;;;;;;;5025456;28;20076;-79
2022/08/06 11:41:21;;;;;;;2.53;0.40;;;;;;;;;;5034073;28;20030;-80
2022/08/06 11:43:52;;;;;;;4.10;0.45;;;;;;;;;;5039641;28;20037;-79
2022/08/06 11:46:32;;;;;;;1.42;0.30;;;;;;;;;;5026529;28;20033;-79
2022/08/06 11:49:02;;;;;;;6.65;0.98;;;;;;;;;;5023669;28;20453;-79
2022/08/06 11:51:40;;;;;;;7.10;1.23;;;;;;;;;;5046895;28;20519;-79
2022/08/06 11:54:14;;;;;;;2.50;0.30;;;;;;;;;;5027052;28;20040;-80
2022/08/06 11:56:58;;;;;;;4.93;2.65;;;;;;;;;;5001762;28;20049;-80
2022/08/06 11:59:23;;;;;;;7.28;3.20;;;;;;;;;;5035523;28;20060;-80
2022/08/06 12:01:49;;;;;;;6.80;3.08;;;;;;;;;;5010801;28;20053;-80
2022/08/06 12:04:40;;;;;;;5.15;2.70;;;;;;;;;;5016619;28;20124;-80
2022/08/06 12:07:15;;;;;;;4.78;1.77;;;;;;;;;;5042888;28;20028;-79
2022/08/06 12:09:40;;;;;;;3.38;1.05;;;;;;;;;;5034641;28;20155;-80
2022/08/06 12:12:27;;;;;;;3.38;0.88;;;;;;;;;;5015146;28;20072;-80
2022/08/06 12:14:53;;;;;;;3.03;0.50;;;;;;;;;;5040248;28;20099;-80
2022/08/06 12:17:19;;;;;;;2.13;0.50;;;;;;;;;;5016930;28;20038;-80
2022/08/06 12:19:46;;;;;;;2.53;0.52;;;;;;;;;;5004815;28;20402;-79
2022/08/06 12:22:15;;;;;;;0.82;0.28;;;;;;;;;;5020376;28;20499;-80
2022/08/06 12:24:44;;;;;;;1.33;0.30;;;;;;;;;;5019464;28;20083;-80
2022/08/06 12:27:10;;;;;;;1.35;0.32;;;;;;;;;;5016446;28;20037;-80
2022/08/06 12:29:36;;;;;;;1.42;0.30;;;;;;;;;;5016947;28;20046;-79
2022/08/06 12:32:01;;;;;;;3.42;0.22;;;;;;;;;;5016488;28;20036;-80
2022/08/06 12:34:28;;;;;;;2.63;0.98;;;;;;;;;;5016805;28;20500;-80
2022/08/06 12:36:53;;;;;;;2.47;0.35;;;;;;;;;;5015650;28;20515;-80
2022/08/06 12:39:19;;;;;;;2.78;0.30;;;;;;;;;;5002595;28;20053;-80
2022/08/06 12:41:44;;;;;;;2.58;1.17;;;;;;;;;;5015778;28;20067;-81
2022/08/06 12:44:10;;;;;;;3.45;0.90;;;;;;;;;;5008094;28;20041;-81
2022/08/06 12:46:35;;;;;;;5.97;2.47;;;;;;;;;;5000409;28;20041;-81
2022/08/06 12:49:01;;;;;;;5.95;2.67;;;;;;;;;;5015213;28;20117;-80
2022/08/06 12:51:27;;;;;;;3.40;1.45;;;;;;;;;;4999998;28;20037;-80
2022/08/06 12:53:59;;;;;;;2.13;1.02;;;;;;;;;;4999839;28;20411;-80
2022/08/06 12:56:24;;;;;;;3.92;1.10;;;;;;;;;;5016399;28;20620;-81
2022/08/06 12:58:51;;;;;;;2.42;0.50;;;;;;;;;;5027023;28;20049;-81
2022/08/06 13:01:18;;;;;;;1.63;0.57;;;;;;;;;;5002682;28;20526;-80
2022/08/06 13:03:45;;;;;;;1.70;0.20;;;;;;;;;;5011463;28;20043;-81
2022/08/06 13:06:10;;;;;;;1.25;0.30;;;;;;;;;;5033452;28;20047;-81
2022/08/06 13:08:36;;;;;;;1.02;0.38;;;;;;;;;;5012149;28;20042;-81
2022/08/06 13:11:01;;;;;;;1.63;0.40;;;;;;;;;;5004527;28;20056;-81
2022/08/06 13:13:41;;;;;;;1.38;0.22;;;;;;;;;;5019161;28;20045;-80
2022/08/06 13:16:10;;;;;;;1.23;0.15;;;;;;;;;;5003404;28;20061;-80
2022/08/06 13:18:36;;;;;;;1.33;0.35;;;;;;;;;;5019259;28;20040;-80
2022/08/06 13:21:03;;;;;;;0.50;0.25;;;;;;;;;;5018602;28;20368;-80
2022/08/06 13:23:33;;;;;;;3.28;0.32;;;;;;;;;;5003354;28;20059;-80
2022/08/06 13:25:59;;;;;;;2.15;0.32;;;;;;;;;;5019286;28;20029;-80
2022/08/06 13:28:24;;;;;;;2.15;0.20;;;;;;;;;;4999526;28;20053;-81
2022/08/06 13:30:50;;;;;;;3.08;0.25;;;;;;;;;;5015836;28;20045;-80
2022/08/06 13:33:17;;;;;;;2.17;0.43;;;;;;;;;;4999855;28;20045;-80
2022/08/06 13:35:47;;;;;;;0.82;0.20;;;;;;;;;;5015801;28;20095;-80
2022/08/06 13:38:33;;;;;;;2.00;0.20;;;;;;;;;;5034283;28;20037;-81
2022/08/06 13:40:58;;;;;;;2.97;0.30;;;;;;;;;;5018940;28;20041;-80
2022/08/06 13:43:41;;;;;;;1.45;0.20;;;;;;;;;;5019130;28;20048;-81
2022/08/06 13:46:12;;;;;;;0.52;0.10;;;;;;;;;;5003507;28;20056;-81
2022/08/06 13:48:51;;;;;;;7.38;0.80;;;;;;;;;;5002829;28;20047;-80
2022/08/06 13:51:17;;;;;;;3.00;0.35;;;;;;;;;;5035023;28;20064;-80
2022/08/06 13:53:43;;;;;;;1.73;0.28;;;;;;;;;;5018847;28;20040;-79
2022/08/06 13:56:09;;;;;;;4.97;0.95;;;;;;;;;;5001887;28;20129;-79
2022/08/06 13:58:35;;;;;;;10.75;1.65;;;;;;;;;;5001945;28;20072;-79
2022/08/06 14:01:00;;;;;;;2.83;0.40;;;;;;;;;;5017877;28;20036;-80
2022/08/06 14:03:26;;;;;;;1.55;0.20;;;;;;;;;;5015087;28;20054;-78
2022/08/06 14:05:53;;;;;;;2.72;0.50;;;;;;;;;;5014718;28;20033;-79
2022/08/06 14:08:18;;;;;;;3.33;0.28;;;;;;;;;;5014835;28;20132;-80
2022/08/06 14:10:44;;;;;;;4.65;0.60;;;;;;;;;;5000172;28;20132;-80
2022/08/06 14:13:15;;;;;;;2.55;0.50;;;;;;;;;;4982740;28;20120;-79
2022/08/06 14:15:41;;;;;;;3.43;0.30;;;;;;;;;;5015969;28;20064;-79
2022/08/06 14:18:06;;;;;;;2.75;0.65;;;;;;;;;;4998365;28;20033;-79
2022/08/06 14:20:32;;;;;;;3.20;0.45;;;;;;;;;;4998207;28;20045;-79
2022/08/06 14:22:57;;;;;;;2.33;0.52;;;;;;;;;;4998635;28;20108;-80
2022/08/06 14:25:23;;;;;;;2.35;0.35;;;;;;;;;;4998136;28;20443;-80
2022/08/06 14:27:49;;;;;;;1.65;0.32;;;;;;;;;;4998366;28;20048;-80
2022/08/06 14:30:14;;;;;;;1.23;0.40;;;;;;;;;;4982027;28;20053;-80
2022/08/06 14:32:40;;;;;;;1.30;0.40;;;;;;;;;;4998525;28;20525;-79
2022/08/06 14:35:06;;;;;;;1.80;0.20;;;;;;;;;;4998043;28;20041;-79
2022/08/06 14:37:32;;;;;;;2.38;0.57;;;;;;;;;;4998387;28;20037;-80
2022/08/06 14:39:57;;;;;;;2.30;0.30;;;;;;;;;;4979999;28;20488;-80
2022/08/06 14:45:07;;;;;;;1.08;0.40;;;;;;;;;;5017131;28;20033;-80
2022/08/06 14:47:33;;;;;;;1.55;0.60;;;;;;;;;;4997950;28;20112;-81
2022/08/06 14:49:58;;;;;;;2.90;0.73;;;;;;;;;;5013752;28;20045;-79
2022/08/06 14:52:24;;;;;;;8.07;1.38;;;;;;;;;;4997670;28;20041;-80
2022/08/06 14:54:49;;;;;;;20.08;1.45;;;;;;;;;;5014036;28;20170;-81
2022/08/06 14:57:15;;;;;;;15.93;0.95;;;;;;;;;;4998310;28;20566;-81